Time;durP1;ratioP1;P1;durP2;ratioP2;P2;SDS_P1;SDS_P2;PMS_P1;PMS_P2;Temp;Humidity;BMP_temperature;BMP_pressure;BME280_temperature;BME280_humidity;BME280_pressure;Samples;Min_cycle;Max_cycle;Signal;HPM_P1;HPM_P2
2022/08/14 00:00:17;;;;;;;3.30;3.00;;;;;;;;;;527124;28;906;-85
2022/08/14 00:00:32;;;;;;;3.50;2.75;;;;;;;;;;526365;28;1305;-85
2022/08/14 00:00:48;;;;;;;5.75;2.92;;;;;;;;;;526501;28;1247;-85
2022/08/14 00:01:04;;;;;;;5.90;2.97;;;;;;;;;;526207;28;1363;-85
2022/08/14 00:01:19;;;;;;;3.42;2.83;;;;;;;;;;524329;28;1182;-85
2022/08/14 00:01:35;;;;;;;3.43;2.90;;;;;;;;;;524378;28;943;-85
2022/08/14 00:01:50;;;;;;;4.10;3.10;;;;;;;;;;524320;28;891;-85
2022/08/14 00:02:06;;;;;;;3.47;3.10;;;;;;;;;;522150;28;1302;-85
2022/08/14 00:02:21;;;;;;;3.30;3.00;;;;;;;;;;520831;28;1135;-85
2022/08/14 00:02:37;;;;;;;3.78;2.92;;;;;;;;;;522618;28;1034;-85
2022/08/14 00:02:53;;;;;;;4.70;3.00;;;;;;;;;;524870;28;840;-85
2022/08/14 00:03:26;;;;;;;4.20;3.00;;;;;;;;;;526776;28;800;-85
2022/08/14 00:03:42;;;;;;;3.78;3.20;;;;;;;;;;528326;28;1197;-85
2022/08/14 00:03:57;;;;;;;4.20;3.23;;;;;;;;;;529312;27;1032;-85
2022/08/14 00:04:13;;;;;;;4.15;3.30;;;;;;;;;;529263;27;1216;-85
2022/08/14 00:04:29;;;;;;;3.93;3.30;;;;;;;;;;530673;27;1278;-85
2022/08/14 00:04:45;;;;;;;4.70;3.35;;;;;;;;;;530538;27;1294;-85
2022/08/14 00:05:00;;;;;;;4.63;3.30;;;;;;;;;;528345;28;1444;-85
2022/08/14 00:05:20;;;;;;;4.30;3.40;;;;;;;;;;526444;28;1173;-85
2022/08/14 00:05:35;;;;;;;4.07;2.97;;;;;;;;;;526253;28;817;-85
2022/08/14 00:05:52;;;;;;;3.53;2.90;;;;;;;;;;525593;28;1459;-85
2022/08/14 00:06:08;;;;;;;3.83;3.10;;;;;;;;;;525007;28;923;-85
2022/08/14 00:06:24;;;;;;;3.70;3.20;;;;;;;;;;526003;28;1343;-84
2022/08/14 00:06:39;;;;;;;3.53;3.10;;;;;;;;;;523268;28;1342;-85
2022/08/14 00:06:54;;;;;;;3.50;3.17;;;;;;;;;;524893;28;1428;-85
2022/08/14 00:07:12;;;;;;;4.70;3.30;;;;;;;;;;527754;28;804;-85
2022/08/14 00:07:27;;;;;;;4.72;3.30;;;;;;;;;;528562;28;819;-85
2022/08/14 00:07:43;;;;;;;3.67;3.10;;;;;;;;;;528550;28;788;-85
2022/08/14 00:07:59;;;;;;;3.53;3.10;;;;;;;;;;526400;28;1260;-85
2022/08/14 00:08:14;;;;;;;3.40;3.10;;;;;;;;;;526544;28;824;-85
2022/08/14 00:08:30;;;;;;;3.47;3.13;;;;;;;;;;524944;28;1275;-86
2022/08/14 00:08:46;;;;;;;4.80;3.30;;;;;;;;;;524993;28;1322;-85
2022/08/14 00:09:01;;;;;;;5.28;3.30;;;;;;;;;;524452;28;1195;-85
2022/08/14 00:09:17;;;;;;;5.30;3.47;;;;;;;;;;524205;28;1188;-84
2022/08/14 00:09:34;;;;;;;4.40;3.42;;;;;;;;;;524263;28;875;-85
2022/08/14 00:09:49;;;;;;;3.28;2.97;;;;;;;;;;524590;28;851;-85
2022/08/14 00:10:08;;;;;;;3.63;2.90;;;;;;;;;;522243;28;1444;-85
2022/08/14 00:10:23;;;;;;;4.38;3.00;;;;;;;;;;523164;28;1186;-85
2022/08/14 00:10:39;;;;;;;3.53;3.00;;;;;;;;;;524007;28;1251;-85
2022/08/14 00:10:54;;;;;;;3.50;3.20;;;;;;;;;;522988;28;1171;-85
2022/08/14 00:11:10;;;;;;;3.70;3.10;;;;;;;;;;522096;28;1315;-85
2022/08/14 00:11:28;;;;;;;3.72;3.00;;;;;;;;;;520634;28;1338;-85
2022/08/14 00:11:43;;;;;;;3.55;3.20;;;;;;;;;;522208;28;1123;-85
2022/08/14 00:11:59;;;;;;;4.67;3.47;;;;;;;;;;519824;28;1362;-86
2022/08/14 00:12:14;;;;;;;6.55;3.50;;;;;;;;;;520287;28;844;-86
2022/08/14 00:12:33;;;;;;;6.03;3.27;;;;;;;;;;520879;28;776;-85
2022/08/14 00:12:51;;;;;;;5.22;3.22;;;;;;;;;;523289;28;1230;-85
2022/08/14 00:13:08;;;;;;;4.28;3.50;;;;;;;;;;523655;28;1255;-85
2022/08/14 00:13:27;;;;;;;3.47;3.17;;;;;;;;;;526150;28;839;-85
2022/08/14 00:13:43;;;;;;;3.40;3.10;;;;;;;;;;528253;28;1250;-85
2022/08/14 00:14:01;;;;;;;3.78;3.30;;;;;;;;;;528227;28;1363;-85
2022/08/14 00:14:16;;;;;;;4.40;3.22;;;;;;;;;;526473;28;1276;-85
2022/08/14 00:14:32;;;;;;;4.25;3.38;;;;;;;;;;526359;28;1187;-85
2022/08/14 00:14:47;;;;;;;5.00;3.30;;;;;;;;;;524565;28;1915;-85
2022/08/14 00:15:08;;;;;;;5.30;3.28;;;;;;;;;;525510;28;1318;-85
2022/08/14 00:15:29;;;;;;;3.85;3.30;;;;;;;;;;524240;28;1305;-85
2022/08/14 00:15:48;;;;;;;3.80;3.20;;;;;;;;;;520225;28;1365;-85
2022/08/14 00:16:03;;;;;;;3.70;3.30;;;;;;;;;;522019;28;864;-85
2022/08/14 00:16:19;;;;;;;5.43;3.30;;;;;;;;;;522310;28;816;-85
2022/08/14 00:16:36;;;;;;;4.80;3.17;;;;;;;;;;524143;28;1274;-86
2022/08/14 00:16:52;;;;;;;3.47;3.17;;;;;;;;;;522709;28;1407;-85
2022/08/14 00:17:07;;;;;;;4.17;3.30;;;;;;;;;;524432;28;768;-85
2022/08/14 00:17:23;;;;;;;5.65;3.28;;;;;;;;;;524188;28;1330;-85
2022/08/14 00:17:38;;;;;;;6.23;3.27;;;;;;;;;;523181;28;1294;-85
2022/08/14 00:17:54;;;;;;;5.45;3.33;;;;;;;;;;522065;28;1546;-85
2022/08/14 00:18:12;;;;;;;4.50;3.47;;;;;;;;;;522364;28;982;-85
2022/08/14 00:18:28;;;;;;;6.50;3.40;;;;;;;;;;523139;28;1226;-85
2022/08/14 00:18:43;;;;;;;5.03;3.13;;;;;;;;;;522187;28;1628;-85
2022/08/14 00:18:59;;;;;;;3.30;3.00;;;;;;;;;;519950;28;1193;-86
2022/08/14 00:19:14;;;;;;;3.50;3.20;;;;;;;;;;523077;28;1289;-85
2022/08/14 00:19:31;;;;;;;3.50;3.20;;;;;;;;;;522260;28;852;-85
2022/08/14 00:19:46;;;;;;;3.55;3.25;;;;;;;;;;521064;28;1370;-85
2022/08/14 00:20:03;;;;;;;3.53;3.20;;;;;;;;;;522384;28;809;-85
2022/08/14 00:20:23;;;;;;;4.47;3.10;;;;;;;;;;522691;28;1129;-85
2022/08/14 00:20:41;;;;;;;5.60;3.20;;;;;;;;;;523282;28;1513;-85
2022/08/14 00:20:57;;;;;;;4.15;3.10;;;;;;;;;;524093;28;1019;-85
2022/08/14 00:21:12;;;;;;;3.93;3.10;;;;;;;;;;525905;28;860;-85
2022/08/14 00:21:28;;;;;;;3.42;3.10;;;;;;;;;;526235;28;979;-85
2022/08/14 00:21:43;;;;;;;3.47;3.17;;;;;;;;;;525619;28;1357;-85
2022/08/14 00:21:58;;;;;;;3.50;3.20;;;;;;;;;;526214;28;1069;-85
2022/08/14 00:22:17;;;;;;;3.47;3.17;;;;;;;;;;524117;28;1355;-85
2022/08/14 00:22:33;;;;;;;3.45;3.15;;;;;;;;;;525233;28;1385;-85
2022/08/14 00:22:49;;;;;;;3.53;3.20;;;;;;;;;;526345;28;1296;-85
2022/08/14 00:23:05;;;;;;;4.32;3.10;;;;;;;;;;524182;28;1172;-85
2022/08/14 00:23:21;;;;;;;3.58;2.92;;;;;;;;;;524285;28;1243;-85
2022/08/14 00:23:36;;;;;;;3.40;3.10;;;;;;;;;;524314;28;1291;-85
2022/08/14 00:23:53;;;;;;;3.97;3.37;;;;;;;;;;526367;28;1226;-85
2022/08/14 00:24:08;;;;;;;4.10;3.20;;;;;;;;;;526535;28;1343;-85
2022/08/14 00:24:23;;;;;;;3.50;3.20;;;;;;;;;;524268;28;1197;-85
2022/08/14 00:24:39;;;;;;;3.80;3.30;;;;;;;;;;524342;28;1255;-85
2022/08/14 00:24:54;;;;;;;4.20;3.23;;;;;;;;;;524219;28;1448;-85
2022/08/14 00:25:10;;;;;;;4.00;3.20;;;;;;;;;;524506;28;851;-85
2022/08/14 00:25:27;;;;;;;4.00;3.20;;;;;;;;;;524123;28;1391;-85
2022/08/14 00:25:44;;;;;;;3.58;3.22;;;;;;;;;;522287;28;1046;-85
2022/08/14 00:26:00;;;;;;;3.53;3.22;;;;;;;;;;522775;28;1259;-86
2022/08/14 00:26:15;;;;;;;3.40;3.10;;;;;;;;;;525645;28;1098;-85
2022/08/14 00:26:31;;;;;;;3.50;3.20;;;;;;;;;;528203;28;1256;-85
2022/08/14 00:26:46;;;;;;;3.78;3.38;;;;;;;;;;526385;28;1304;-86
2022/08/14 00:27:01;;;;;;;3.93;3.37;;;;;;;;;;524229;28;1177;-85
2022/08/14 00:27:17;;;;;;;4.70;3.50;;;;;;;;;;524385;28;962;-85
2022/08/14 00:27:33;;;;;;;4.50;3.43;;;;;;;;;;524420;28;868;-85
2022/08/14 00:27:48;;;;;;;3.70;3.30;;;;;;;;;;524079;28;1287;-85
2022/08/14 00:28:06;;;;;;;4.03;3.40;;;;;;;;;;524379;28;1007;-85
2022/08/14 00:28:25;;;;;;;4.43;3.25;;;;;;;;;;525065;28;954;-86
2022/08/14 00:28:40;;;;;;;4.35;3.20;;;;;;;;;;525379;28;1285;-85
2022/08/14 00:28:56;;;;;;;5.23;3.50;;;;;;;;;;527551;28;1110;-85
2022/08/14 00:29:11;;;;;;;5.65;3.50;;;;;;;;;;528623;28;918;-85
2022/08/14 00:29:29;;;;;;;5.13;3.43;;;;;;;;;;528498;28;915;-85
2022/08/14 00:29:44;;;;;;;5.25;3.70;;;;;;;;;;528218;28;1438;-85
2022/08/14 00:30:00;;;;;;;4.57;3.80;;;;;;;;;;528434;28;772;-85
2022/08/14 00:30:15;;;;;;;4.10;3.70;;;;;;;;;;526277;28;1408;-85
2022/08/14 00:30:30;;;;;;;4.00;3.60;;;;;;;;;;526886;28;1195;-85
2022/08/14 00:30:46;;;;;;;5.33;3.70;;;;;;;;;;528473;28;950;-85
2022/08/14 00:31:04;;;;;;;5.82;3.65;;;;;;;;;;526308;28;1274;-85
2022/08/14 00:31:19;;;;;;;4.88;3.70;;;;;;;;;;526218;28;1270;-85
2022/08/14 00:31:35;;;;;;;4.90;3.72;;;;;;;;;;526118;28;1010;-85
2022/08/14 00:31:50;;;;;;;6.30;3.77;;;;;;;;;;524822;28;1049;-85
2022/08/14 00:32:06;;;;;;;5.03;3.80;;;;;;;;;;524285;28;1410;-85
2022/08/14 00:32:21;;;;;;;4.55;3.58;;;;;;;;;;526510;28;791;-85
2022/08/14 00:32:38;;;;;;;5.27;3.50;;;;;;;;;;526316;28;858;-85
2022/08/14 00:32:54;;;;;;;4.78;3.75;;;;;;;;;;526196;28;1320;-85
2022/08/14 00:33:09;;;;;;;4.83;3.90;;;;;;;;;;528312;28;1391;-85
2022/08/14 00:33:26;;;;;;;5.20;3.80;;;;;;;;;;528497;28;961;-85
2022/08/14 00:33:41;;;;;;;4.80;3.70;;;;;;;;;;527326;28;902;-85
2022/08/14 00:33:56;;;;;;;5.18;3.70;;;;;;;;;;526980;28;1284;-85
2022/08/14 00:34:12;;;;;;;5.33;3.60;;;;;;;;;;528632;28;864;-85
2022/08/14 00:34:27;;;;;;;4.33;3.73;;;;;;;;;;529478;27;1444;-85
2022/08/14 00:34:43;;;;;;;4.05;3.65;;;;;;;;;;530702;27;954;-85
2022/08/14 00:35:00;;;;;;;4.37;3.60;;;;;;;;;;530488;27;1915;-86
2022/08/14 00:35:15;;;;;;;4.65;3.75;;;;;;;;;;530914;27;878;-85
2022/08/14 00:35:31;;;;;;;4.30;3.78;;;;;;;;;;529864;27;1295;-85
2022/08/14 00:35:47;;;;;;;5.40;3.53;;;;;;;;;;528446;28;1092;-85
2022/08/14 00:36:03;;;;;;;5.90;3.50;;;;;;;;;;528649;27;1184;-86
2022/08/14 00:36:23;;;;;;;4.38;3.60;;;;;;;;;;530520;27;1204;-85
2022/08/14 00:36:38;;;;;;;4.00;3.63;;;;;;;;;;528460;28;1344;-85
2022/08/14 00:36:54;;;;;;;4.60;3.60;;;;;;;;;;526216;28;1249;-85
2022/08/14 00:37:09;;;;;;;4.75;3.60;;;;;;;;;;524194;28;1363;-85
2022/08/14 00:37:25;;;;;;;4.10;3.45;;;;;;;;;;524361;28;1215;-85
2022/08/14 00:37:42;;;;;;;3.70;3.23;;;;;;;;;;524179;28;1270;-86
2022/08/14 00:37:58;;;;;;;3.67;3.23;;;;;;;;;;524073;28;1415;-85
2022/08/14 00:38:13;;;;;;;3.80;3.40;;;;;;;;;;524119;28;1251;-86
2022/08/14 00:38:29;;;;;;;3.70;3.40;;;;;;;;;;524146;28;1050;-85
2022/08/14 00:38:44;;;;;;;3.97;3.58;;;;;;;;;;524306;28;1200;-85
2022/08/14 00:38:59;;;;;;;4.17;3.70;;;;;;;;;;522199;28;1318;-85
2022/08/14 00:39:15;;;;;;;4.10;3.63;;;;;;;;;;522190;28;1318;-85
2022/08/14 00:39:31;;;;;;;4.03;3.60;;;;;;;;;;522136;28;1251;-85
2022/08/14 00:39:47;;;;;;;3.80;3.40;;;;;;;;;;522315;28;906;-85
2022/08/14 00:40:04;;;;;;;4.13;3.50;;;;;;;;;;522803;28;860;-85
2022/08/14 00:40:20;;;;;;;5.13;3.50;;;;;;;;;;522212;28;1375;-85
2022/08/14 00:40:35;;;;;;;4.40;3.45;;;;;;;;;;522692;28;1264;-85
2022/08/14 00:40:51;;;;;;;4.90;3.70;;;;;;;;;;522088;28;1283;-85
2022/08/14 00:41:08;;;;;;;4.97;3.70;;;;;;;;;;522860;28;911;-85
2022/08/14 00:41:30;;;;;;;4.85;3.60;;;;;;;;;;525089;28;895;-85
2022/08/14 00:41:46;;;;;;;4.13;3.55;;;;;;;;;;526255;28;812;-86
2022/08/14 00:42:02;;;;;;;3.97;3.53;;;;;;;;;;526406;28;854;-85
2022/08/14 00:42:19;;;;;;;4.05;3.60;;;;;;;;;;527992;28;1196;-85
2022/08/14 00:42:35;;;;;;;3.78;3.47;;;;;;;;;;526285;28;1297;-85
2022/08/14 00:42:51;;;;;;;3.90;3.50;;;;;;;;;;528321;28;784;-85
2022/08/14 00:43:06;;;;;;;4.43;3.60;;;;;;;;;;528613;28;867;-85
2022/08/14 00:43:22;;;;;;;4.37;3.73;;;;;;;;;;528417;28;1414;-85
2022/08/14 00:43:37;;;;;;;4.95;3.80;;;;;;;;;;528396;28;1472;-85
2022/08/14 00:43:53;;;;;;;5.30;3.80;;;;;;;;;;528392;28;1244;-85
2022/08/14 00:44:09;;;;;;;4.95;3.85;;;;;;;;;;529121;27;1218;-85
2022/08/14 00:44:25;;;;;;;5.22;3.85;;;;;;;;;;527946;28;1883;-85
2022/08/14 00:44:40;;;;;;;4.50;3.70;;;;;;;;;;527858;28;1121;-85
2022/08/14 00:44:56;;;;;;;4.10;3.63;;;;;;;;;;527886;28;1416;-85
2022/08/14 00:45:13;;;;;;;4.22;3.40;;;;;;;;;;528574;28;855;-85
2022/08/14 00:45:28;;;;;;;3.75;3.35;;;;;;;;;;528453;28;1006;-85
2022/08/14 00:45:44;;;;;;;3.70;3.40;;;;;;;;;;528533;28;1223;-85
2022/08/14 00:46:08;;;;;;;3.65;3.30;;;;;;;;;;529161;28;820;-85
2022/08/14 00:46:24;;;;;;;3.78;3.47;;;;;;;;;;530302;27;1234;-85
2022/08/14 00:46:39;;;;;;;3.55;3.25;;;;;;;;;;530340;27;775;-85
2022/08/14 00:46:55;;;;;;;3.63;3.30;;;;;;;;;;528320;28;1308;-85
2022/08/14 00:47:12;;;;;;;4.50;3.70;;;;;;;;;;528469;28;1229;-85
2022/08/14 00:47:28;;;;;;;4.28;3.67;;;;;;;;;;528310;28;902;-85
2022/08/14 00:47:46;;;;;;;4.05;3.47;;;;;;;;;;526315;28;1258;-85
2022/08/14 00:48:02;;;;;;;5.00;3.70;;;;;;;;;;526132;28;1349;-85
2022/08/14 00:48:18;;;;;;;4.10;3.63;;;;;;;;;;526516;28;1512;-85
2022/08/14 00:48:36;;;;;;;3.85;3.55;;;;;;;;;;528502;28;918;-86
2022/08/14 00:48:51;;;;;;;3.75;3.42;;;;;;;;;;528494;28;819;-85
2022/08/14 00:49:08;;;;;;;4.20;3.40;;;;;;;;;;527796;28;1158;-85
2022/08/14 00:49:24;;;;;;;5.55;3.55;;;;;;;;;;526168;28;1462;-85
2022/08/14 00:49:39;;;;;;;5.53;3.70;;;;;;;;;;526455;28;923;-86
2022/08/14 00:49:55;;;;;;;4.07;3.42;;;;;;;;;;526281;28;1319;-85
2022/08/14 00:50:14;;;;;;;3.83;3.43;;;;;;;;;;524394;28;1189;-85
2022/08/14 00:50:30;;;;;;;4.15;3.42;;;;;;;;;;524259;28;871;-85
2022/08/14 00:50:45;;;;;;;5.25;3.30;;;;;;;;;;525995;28;1500;-85
2022/08/14 00:51:02;;;;;;;5.13;3.35;;;;;;;;;;525271;28;863;-85
2022/08/14 00:51:19;;;;;;;4.25;3.40;;;;;;;;;;526350;28;915;-85
2022/08/14 00:51:36;;;;;;;4.57;3.55;;;;;;;;;;526533;28;954;-86
2022/08/14 00:51:51;;;;;;;5.05;3.60;;;;;;;;;;528445;28;745;-85
2022/08/14 00:52:06;;;;;;;4.70;3.47;;;;;;;;;;528311;28;839;-85
2022/08/14 00:52:24;;;;;;;3.80;3.40;;;;;;;;;;526344;28;1210;-85
2022/08/14 00:52:40;;;;;;;3.60;3.30;;;;;;;;;;525300;28;1317;-85
2022/08/14 00:52:58;;;;;;;3.60;3.30;;;;;;;;;;524102;28;1274;-85
2022/08/14 00:53:15;;;;;;;3.70;3.40;;;;;;;;;;524274;28;1372;-85
2022/08/14 00:53:31;;;;;;;3.88;3.45;;;;;;;;;;522071;28;1225;-85
2022/08/14 00:53:49;;;;;;;6.10;3.47;;;;;;;;;;522298;28;820;-85
2022/08/14 00:54:05;;;;;;;5.72;3.45;;;;;;;;;;522084;28;1290;-85
2022/08/14 00:54:21;;;;;;;4.47;3.40;;;;;;;;;;524286;28;1403;-85
2022/08/14 00:54:37;;;;;;;4.60;3.40;;;;;;;;;;524253;28;840;-85
2022/08/14 00:54:53;;;;;;;4.38;3.50;;;;;;;;;;523918;28;1971;-85
2022/08/14 00:55:08;;;;;;;3.88;3.50;;;;;;;;;;523361;28;1374;-86
2022/08/14 00:55:26;;;;;;;3.70;3.40;;;;;;;;;;523255;28;1346;-86
2022/08/14 00:55:42;;;;;;;3.63;3.33;;;;;;;;;;524547;28;1455;-85
2022/08/14 00:55:58;;;;;;;3.70;3.40;;;;;;;;;;526335;28;919;-85
2022/08/14 00:56:13;;;;;;;3.70;3.40;;;;;;;;;;527281;28;1024;-85
2022/08/14 00:56:29;;;;;;;4.23;3.57;;;;;;;;;;526193;28;1308;-85
2022/08/14 00:56:44;;;;;;;3.95;3.50;;;;;;;;;;526337;28;863;-85
2022/08/14 00:57:00;;;;;;;3.72;3.35;;;;;;;;;;526947;28;1364;-85
2022/08/14 00:57:17;;;;;;;5.03;3.40;;;;;;;;;;529119;27;934;-85
2022/08/14 00:57:34;;;;;;;4.72;3.53;;;;;;;;;;531110;27;1150;-85
2022/08/14 00:58:29;;;;;;;4.00;3.60;;;;;;;;;;528172;28;1380;-85
2022/08/14 00:58:31;;;;;;;4.07;3.50;;;;;;;;;;528376;28;812;-85
2022/08/14 00:58:47;;;;;;;3.60;3.30;;;;;;;;;;526313;28;1363;-85
2022/08/14 00:59:03;;;;;;;3.80;3.40;;;;;;;;;;526329;28;1245;-85
2022/08/14 00:59:18;;;;;;;3.78;3.40;;;;;;;;;;526500;28;1046;-85
2022/08/14 00:59:34;;;;;;;3.80;3.50;;;;;;;;;;524210;28;1318;-85
2022/08/14 00:59:50;;;;;;;3.90;3.55;;;;;;;;;;523968;28;1191;-85
2022/08/14 01:00:11;;;;;;;5.20;3.70;;;;;;;;;;524050;28;1514;-85
2022/08/14 01:00:27;;;;;;;6.05;3.80;;;;;;;;;;522134;28;1986;-85
2022/08/14 01:00:43;;;;;;;4.40;3.60;;;;;;;;;;524300;28;1234;-85
2022/08/14 01:01:06;;;;;;;4.10;3.50;;;;;;;;;;526271;28;1247;-85
2022/08/14 01:01:22;;;;;;;4.43;3.58;;;;;;;;;;524013;28;1365;-86
2022/08/14 01:01:37;;;;;;;4.30;3.60;;;;;;;;;;522007;28;1231;-85
2022/08/14 01:01:56;;;;;;;4.40;3.55;;;;;;;;;;519920;28;1206;-85
2022/08/14 01:02:14;;;;;;;4.97;3.63;;;;;;;;;;520253;28;987;-85
2022/08/14 01:02:30;;;;;;;4.65;3.75;;;;;;;;;;522130;28;1409;-85
2022/08/14 01:02:45;;;;;;;4.07;3.63;;;;;;;;;;522181;28;833;-85
2022/08/14 01:03:02;;;;;;;4.10;3.60;;;;;;;;;;520531;28;1042;-85
2022/08/14 01:03:19;;;;;;;4.10;3.50;;;;;;;;;;521644;28;825;-85
2022/08/14 01:03:36;;;;;;;3.85;3.47;;;;;;;;;;521679;28;1227;-86
2022/08/14 01:03:53;;;;;;;4.07;3.67;;;;;;;;;;522076;28;1349;-85
2022/08/14 01:04:10;;;;;;;4.28;3.85;;;;;;;;;;522080;28;1354;-85
2022/08/14 01:04:27;;;;;;;4.30;3.90;;;;;;;;;;523415;28;962;-85
2022/08/14 01:04:43;;;;;;;4.10;3.70;;;;;;;;;;524257;28;1335;-85
2022/08/14 01:05:06;;;;;;;4.85;3.63;;;;;;;;;;523983;28;1314;-85
2022/08/14 01:05:24;;;;;;;4.82;3.70;;;;;;;;;;526181;28;1171;-85
2022/08/14 01:05:44;;;;;;;4.50;3.70;;;;;;;;;;527117;28;953;-85
2022/08/14 01:05:59;;;;;;;4.35;3.70;;;;;;;;;;528281;28;824;-85
2022/08/14 01:06:15;;;;;;;4.90;3.60;;;;;;;;;;528585;28;911;-85
2022/08/14 01:06:31;;;;;;;4.38;3.45;;;;;;;;;;528728;28;843;-85
2022/08/14 01:06:50;;;;;;;3.83;3.50;;;;;;;;;;528491;28;1230;-85
2022/08/14 01:07:06;;;;;;;3.90;3.50;;;;;;;;;;526129;28;1365;-85
2022/08/14 01:07:22;;;;;;;4.23;3.50;;;;;;;;;;526348;28;1346;-85
2022/08/14 01:07:38;;;;;;;4.55;3.67;;;;;;;;;;524057;28;1291;-85
2022/08/14 01:07:56;;;;;;;4.80;3.70;;;;;;;;;;522160;28;1379;-85
2022/08/14 01:08:11;;;;;;;6.63;3.70;;;;;;;;;;522085;28;1570;-85
2022/08/14 01:08:29;;;;;;;6.65;3.80;;;;;;;;;;524602;28;1151;-85
2022/08/14 01:08:44;;;;;;;5.00;3.85;;;;;;;;;;524214;28;1248;-85
2022/08/14 01:09:01;;;;;;;4.45;3.95;;;;;;;;;;526293;28;1308;-85
2022/08/14 01:09:23;;;;;;;4.38;3.60;;;;;;;;;;526395;28;880;-85
2022/08/14 01:09:38;;;;;;;4.15;3.55;;;;;;;;;;526316;28;1076;-85
2022/08/14 01:10:04;;;;;;;4.07;3.60;;;;;;;;;;528275;28;1239;-85
2022/08/14 01:10:20;;;;;;;4.30;3.90;;;;;;;;;;526227;28;908;-85
2022/08/14 01:10:52;;;;;;;4.10;3.70;;;;;;;;;;524622;28;1423;-85
2022/08/14 01:11:08;;;;;;;5.47;3.67;;;;;;;;;;526433;28;1009;-85
2022/08/14 01:11:24;;;;;;;5.75;3.95;;;;;;;;;;524057;28;1187;-85
2022/08/14 01:11:39;;;;;;;5.90;3.80;;;;;;;;;;522119;28;1151;-85
2022/08/14 01:11:56;;;;;;;5.10;3.60;;;;;;;;;;524289;28;1034;-85
2022/08/14 01:12:11;;;;;;;4.57;3.70;;;;;;;;;;523540;28;1368;-85
2022/08/14 01:12:28;;;;;;;5.80;3.80;;;;;;;;;;525026;28;851;-85
2022/08/14 01:12:44;;;;;;;5.65;3.85;;;;;;;;;;524224;28;1203;-85
2022/08/14 01:13:00;;;;;;;4.55;4.00;;;;;;;;;;524022;28;1186;-86
2022/08/14 01:13:21;;;;;;;4.28;3.88;;;;;;;;;;522952;28;1269;-85
2022/08/14 01:13:38;;;;;;;4.10;3.80;;;;;;;;;;526352;28;1412;-85
2022/08/14 01:13:59;;;;;;;4.10;3.65;;;;;;;;;;526281;28;1097;-85
2022/08/14 01:14:16;;;;;;;4.00;3.60;;;;;;;;;;524233;28;1199;-85
2022/08/14 01:14:32;;;;;;;3.95;3.55;;;;;;;;;;524508;28;1042;-85
2022/08/14 01:14:51;;;;;;;3.90;3.60;;;;;;;;;;526540;28;1910;-85
2022/08/14 01:15:08;;;;;;;4.00;3.60;;;;;;;;;;526241;28;1363;-85
2022/08/14 01:15:23;;;;;;;4.55;3.63;;;;;;;;;;526303;28;1327;-85
2022/08/14 01:15:39;;;;;;;4.43;3.70;;;;;;;;;;524168;28;1187;-85
2022/08/14 01:15:57;;;;;;;4.43;3.77;;;;;;;;;;522166;28;1326;-85
2022/08/14 01:16:14;;;;;;;4.00;3.58;;;;;;;;;;522052;28;1164;-85
2022/08/14 01:16:30;;;;;;;3.80;3.40;;;;;;;;;;519982;28;1302;-85
2022/08/14 01:16:46;;;;;;;4.45;3.70;;;;;;;;;;520021;28;1180;-85
2022/08/14 01:17:02;;;;;;;4.65;3.88;;;;;;;;;;521968;28;1260;-85
2022/08/14 01:17:18;;;;;;;4.35;3.70;;;;;;;;;;522269;28;1078;-85
2022/08/14 01:21:02;;;;;;;4.30;3.90;;;;;;;;;;528381;28;1044;-85
2022/08/14 01:21:35;;;;;;;3.90;3.50;;;;;;;;;;528613;28;886;-85
2022/08/14 01:21:50;;;;;;;4.30;3.90;;;;;;;;;;528432;28;898;-85
2022/08/14 01:22:06;;;;;;;4.07;3.65;;;;;;;;;;530391;27;1318;-86
2022/08/14 01:22:21;;;;;;;4.23;3.83;;;;;;;;;;530657;27;779;-85
2022/08/14 01:22:37;;;;;;;4.20;3.75;;;;;;;;;;530210;27;1344;-85
2022/08/14 01:22:52;;;;;;;4.80;3.60;;;;;;;;;;529522;28;1265;-85
2022/08/14 01:23:12;;;;;;;4.13;3.58;;;;;;;;;;530200;27;883;-86
2022/08/14 01:23:29;;;;;;;4.00;3.70;;;;;;;;;;528102;28;1998;-85
2022/08/14 01:23:49;;;;;;;4.20;3.80;;;;;;;;;;528335;28;966;-85
2022/08/14 01:24:14;;;;;;;4.55;3.80;;;;;;;;;;528459;28;1504;-85
2022/08/14 01:24:30;;;;;;;4.30;3.75;;;;;;;;;;528592;28;890;-85
2022/08/14 01:24:47;;;;;;;4.10;3.70;;;;;;;;;;528494;28;851;-85
2022/08/14 01:25:02;;;;;;;4.00;3.60;;;;;;;;;;528342;28;1409;-85
2022/08/14 01:25:19;;;;;;;4.18;3.78;;;;;;;;;;526982;28;1270;-85
2022/08/14 01:25:36;;;;;;;4.30;3.90;;;;;;;;;;528194;28;1209;-85
2022/08/14 01:25:51;;;;;;;4.30;3.90;;;;;;;;;;526092;28;941;-85
2022/08/14 01:26:08;;;;;;;4.40;3.80;;;;;;;;;;527599;28;1242;-85
2022/08/14 01:26:24;;;;;;;4.30;3.70;;;;;;;;;;526053;28;1310;-85
2022/08/14 01:26:41;;;;;;;4.32;3.70;;;;;;;;;;527005;28;1309;-85
2022/08/14 01:26:58;;;;;;;5.00;4.00;;;;;;;;;;524038;28;1377;-85
2022/08/14 01:27:17;;;;;;;4.60;3.95;;;;;;;;;;525470;28;1333;-85
2022/08/14 01:27:34;;;;;;;4.28;3.88;;;;;;;;;;522099;28;1270;-85
2022/08/14 01:27:50;;;;;;;4.63;4.00;;;;;;;;;;522320;28;915;-86
2022/08/14 01:28:05;;;;;;;4.65;4.00;;;;;;;;;;522131;28;999;-85
2022/08/14 01:28:25;;;;;;;4.23;3.77;;;;;;;;;;522032;28;1263;-85
2022/08/14 01:28:41;;;;;;;4.93;3.70;;;;;;;;;;522505;28;1325;-85
2022/08/14 01:28:58;;;;;;;5.57;3.80;;;;;;;;;;523667;28;950;-85
2022/08/14 01:29:14;;;;;;;5.28;3.75;;;;;;;;;;523696;28;1256;-85
2022/08/14 01:29:36;;;;;;;5.32;3.97;;;;;;;;;;523686;28;1246;-85
2022/08/14 01:29:54;;;;;;;6.05;4.07;;;;;;;;;;521772;28;1388;-85
2022/08/14 01:30:10;;;;;;;4.65;3.88;;;;;;;;;;521487;28;1218;-85
2022/08/14 01:30:26;;;;;;;3.80;3.50;;;;;;;;;;521985;28;1306;-85
2022/08/14 01:30:42;;;;;;;3.95;3.65;;;;;;;;;;524227;28;1272;-85
2022/08/14 01:30:58;;;;;;;4.05;3.70;;;;;;;;;;524191;28;1220;-85
2022/08/14 01:31:16;;;;;;;4.15;3.65;;;;;;;;;;522157;28;1261;-85
2022/08/14 01:31:48;;;;;;;4.47;3.80;;;;;;;;;;522171;28;886;-85
2022/08/14 01:32:05;;;;;;;3.75;3.38;;;;;;;;;;524481;28;977;-85
2022/08/14 01:32:21;;;;;;;4.15;3.50;;;;;;;;;;525605;28;827;-85
2022/08/14 01:32:37;;;;;;;4.10;3.70;;;;;;;;;;525483;28;1430;-85
2022/08/14 01:32:53;;;;;;;4.30;3.90;;;;;;;;;;527502;28;1331;-85
2022/08/14 01:33:10;;;;;;;4.35;3.95;;;;;;;;;;529791;27;834;-85
2022/08/14 01:33:28;;;;;;;4.18;3.78;;;;;;;;;;527446;28;1303;-85
2022/08/14 01:33:46;;;;;;;4.18;3.78;;;;;;;;;;526494;28;917;-85
2022/08/14 01:34:04;;;;;;;4.38;3.80;;;;;;;;;;524277;28;1501;-85
2022/08/14 01:34:25;;;;;;;5.07;3.60;;;;;;;;;;522022;28;1264;-85
2022/08/14 01:34:40;;;;;;;4.90;3.70;;;;;;;;;;522617;28;1303;-88
2022/08/14 01:34:57;;;;;;;4.00;3.70;;;;;;;;;;521949;28;1961;-88
2022/08/14 01:35:12;;;;;;;4.63;3.80;;;;;;;;;;522991;28;1364;-88
2022/08/14 01:35:28;;;;;;;5.03;3.80;;;;;;;;;;524218;28;1271;-88
2022/08/14 01:35:45;;;;;;;4.80;3.87;;;;;;;;;;524470;28;828;-88
2022/08/14 01:36:01;;;;;;;4.88;4.00;;;;;;;;;;524805;28;1253;-89
2022/08/14 01:36:22;;;;;;;4.45;4.03;;;;;;;;;;524056;28;886;-89
2022/08/14 01:36:38;;;;;;;5.13;4.00;;;;;;;;;;524478;28;923;-87
2022/08/14 01:36:53;;;;;;;5.43;3.80;;;;;;;;;;522622;28;1191;-87
2022/08/14 01:37:09;;;;;;;4.10;3.70;;;;;;;;;;521926;28;1275;-89
2022/08/14 01:37:24;;;;;;;4.30;3.90;;;;;;;;;;525750;28;1221;-87
2022/08/14 01:37:45;;;;;;;4.30;3.90;;;;;;;;;;526198;28;1187;-88
2022/08/14 01:38:00;;;;;;;4.30;3.90;;;;;;;;;;524367;28;1396;-88
2022/08/14 01:38:15;;;;;;;4.17;3.77;;;;;;;;;;522190;28;1433;-88
2022/08/14 01:38:33;;;;;;;4.20;3.80;;;;;;;;;;521939;28;1367;-88
2022/08/14 01:38:50;;;;;;;4.40;4.00;;;;;;;;;;520156;28;1253;-88
2022/08/14 01:39:12;;;;;;;4.10;3.80;;;;;;;;;;520157;28;812;-88
2022/08/14 01:39:28;;;;;;;4.43;4.03;;;;;;;;;;519851;28;1241;-88
2022/08/14 01:39:44;;;;;;;4.55;4.15;;;;;;;;;;520098;28;1217;-88
2022/08/14 01:40:02;;;;;;;4.43;4.03;;;;;;;;;;525351;28;1237;-88
2022/08/14 01:40:21;;;;;;;4.45;4.05;;;;;;;;;;524574;28;1457;-87
2022/08/14 01:40:37;;;;;;;6.05;4.40;;;;;;;;;;524163;28;1230;-87
2022/08/14 01:40:52;;;;;;;6.30;4.53;;;;;;;;;;524753;28;1139;-87
2022/08/14 01:41:13;;;;;;;4.90;4.20;;;;;;;;;;521829;28;1309;-87
2022/08/14 01:41:28;;;;;;;5.03;4.35;;;;;;;;;;522069;28;1231;-87
2022/08/14 01:41:52;;;;;;;4.97;4.45;;;;;;;;;;523002;28;998;-88
2022/08/14 01:42:07;;;;;;;4.68;4.15;;;;;;;;;;522626;28;1365;-88
2022/08/14 01:42:23;;;;;;;5.07;4.10;;;;;;;;;;522413;28;1317;-88
2022/08/14 01:42:43;;;;;;;5.32;4.22;;;;;;;;;;521842;28;1378;-88
2022/08/14 01:42:59;;;;;;;4.68;4.13;;;;;;;;;;522084;28;1014;-88
2022/08/14 01:43:16;;;;;;;4.55;4.15;;;;;;;;;;522783;28;1266;-87
2022/08/14 01:43:38;;;;;;;4.47;4.07;;;;;;;;;;522049;28;1353;-87
2022/08/14 01:44:02;;;;;;;5.50;4.38;;;;;;;;;;522215;28;884;-88
2022/08/14 01:44:17;;;;;;;4.93;4.38;;;;;;;;;;525231;28;1389;-88
2022/08/14 01:44:33;;;;;;;4.97;4.47;;;;;;;;;;526057;28;1396;-88
2022/08/14 01:44:51;;;;;;;4.60;4.20;;;;;;;;;;524274;28;1544;-88
2022/08/14 01:45:11;;;;;;;4.60;3.97;;;;;;;;;;525139;28;1253;-89
2022/08/14 01:45:27;;;;;;;4.80;4.07;;;;;;;;;;524293;28;902;-87
2022/08/14 01:45:44;;;;;;;5.85;4.40;;;;;;;;;;524608;28;1270;-88
2022/08/14 01:45:59;;;;;;;5.18;4.30;;;;;;;;;;522183;28;1254;-88
2022/08/14 01:46:22;;;;;;;4.87;4.30;;;;;;;;;;521944;28;1303;-88
2022/08/14 01:46:40;;;;;;;4.72;4.28;;;;;;;;;;523146;28;1361;-88
2022/08/14 01:47:00;;;;;;;4.60;4.20;;;;;;;;;;523160;28;1289;-87
2022/08/14 01:47:17;;;;;;;4.97;4.47;;;;;;;;;;522056;28;1393;-89
2022/08/14 01:47:33;;;;;;;4.90;4.38;;;;;;;;;;522792;28;1238;-87
2022/08/14 01:47:48;;;;;;;6.15;4.40;;;;;;;;;;522655;28;855;-88
2022/08/14 01:48:04;;;;;;;6.20;4.30;;;;;;;;;;522563;28;1300;-88
2022/08/14 01:48:22;;;;;;;5.53;4.15;;;;;;;;;;525047;28;1190;-88